X  Κλείσε Στοιχεία αεροπορικών μετεωρολογικών δεδομένων METAR     LGRX Patras Araxos Agamemnon Airport
Θερμοκρασία
0°C Θερμοκρασία
-2°C Σημείο δρόσου
87% Υγρασία



Άνεμος
0 KM/H
0 MPH
0 M/S
0 KTS



Άπνοια
Βόρεια
Τρέχουσες Συνθήκες

Καθαρός Καθαρός
Πίεση 1023.92 (hPa) - 30.24 (inHg)
Ορατότητα 6.2 (μίλια) - 10 (km)
Aεροδρόμιο
Κωδικός Αεροδρομίου LGRX

Τοποθεσία: Patras Araxos Agamemnon Airport
Απόσταση: 108 (km)

Metar:
LGRX 280520Z 00000KT CAVOK 00/M02 Q1024

ώρα: 28-01-2022 07:20 EET